Time;durP1;ratioP1;P1;durP2;ratioP2;P2;SDS_P1;SDS_P2;PMS_P1;PMS_P2;Temp;Humidity;BMP_temperature;BMP_pressure;BME280_temperature;BME280_humidity;BME280_pressure;Samples;Min_cycle;Max_cycle;Signal;HPM_P1;HPM_P2
2023/07/28 00:03:24;;;;;;;10.07;8.95;;;;;;;15.88;100.00;99269.69;10110276;29;20062;-76
2023/07/28 00:08:28;;;;;;;12.70;11.27;;;;;;;16.05;98.80;99267.63;10117906;29;20052;-78
2023/07/28 00:13:31;;;;;;;10.07;8.98;;;;;;;16.09;98.37;99258.09;10113087;29;20135;-77
2023/07/28 00:18:34;;;;;;;11.65;10.40;;;;;;;16.04;99.08;99259.69;10114642;29;20049;-76
2023/07/28 00:23:38;;;;;;;9.35;8.35;;;;;;;15.83;99.03;99250.44;10113417;29;20126;-77
2023/07/28 00:28:41;;;;;;;10.13;8.95;;;;;;;15.92;99.86;99267.44;10106372;29;20174;-77
2023/07/28 00:33:44;;;;;;;9.50;8.48;;;;;;;15.95;100.00;99268.94;10113966;29;20207;-77
2023/07/28 00:38:48;;;;;;;8.00;7.22;;;;;;;16.10;99.46;99258.97;10108244;29;20051;-76
2023/07/28 00:43:51;;;;;;;8.57;6.72;;;;;;;16.04;100.00;99256.97;10126835;29;20058;-76
2023/07/28 00:48:54;;;;;;;7.95;6.25;;;;;;;16.01;98.56;99260.06;10109356;29;21334;-76
2023/07/28 00:53:59;;;;;;;6.70;5.20;;;;;;;16.04;99.19;99262.41;10110670;29;20056;-77
2023/07/28 00:59:02;;;;;;;7.63;4.75;;;;;;;15.96;100.00;99268.72;10115787;29;20052;-77
2023/07/28 01:04:05;;;;;;;8.90;5.60;;;;;;;15.89;100.00;99275.94;10115962;29;20057;-76
2023/07/28 01:09:13;;;;;;;8.10;6.10;;;;;;;15.98;100.00;99279.41;10105359;29;20052;-77
2023/07/28 01:14:16;;;;;;;7.45;6.22;;;;;;;16.10;99.81;99270.63;10108200;29;20057;-77
2023/07/28 01:19:22;;;;;;;9.60;6.03;;;;;;;15.99;99.75;99273.81;10109612;29;20055;-77
2023/07/28 01:24:37;;;;;;;9.25;6.05;;;;;;;15.99;99.94;99275.66;10108155;29;20108;-77
2023/07/28 01:29:42;;;;;;;10.85;5.78;;;;;;;15.69;100.00;99281.91;10101238;29;20075;-77
2023/07/28 01:34:45;;;;;;;8.63;6.40;;;;;;;15.85;100.00;99291.72;10110945;29;20059;-77
2023/07/28 01:39:47;;;;;;;7.55;6.75;;;;;;;15.93;100.00;99286.22;10118410;29;20055;-77
2023/07/28 01:44:52;;;;;;;11.45;6.90;;;;;;;16.08;98.88;99288.09;10107791;29;20123;-77
2023/07/28 01:49:55;;;;;;;10.70;8.05;;;;;;;15.98;98.42;99291.06;10111350;29;20056;-75
2023/07/28 01:54:58;;;;;;;10.38;7.88;;;;;;;16.07;99.16;99297.22;10115317;29;20854;-76
2023/07/28 02:00:03;;;;;;;12.75;7.00;;;;;;;16.03;99.20;99290.50;10112796;29;20055;-76
2023/07/28 02:05:15;;;;;;;13.32;8.70;;;;;;;15.98;99.79;99295.66;10106924;29;20044;-76
2023/07/28 02:10:18;;;;;;;11.27;8.50;;;;;;;15.94;100.00;99284.34;10112464;29;20064;-77
2023/07/28 02:15:22;;;;;;;10.15;8.27;;;;;;;15.99;99.59;99278.34;10111924;29;20429;-77
2023/07/28 02:20:25;;;;;;;11.63;9.65;;;;;;;16.00;99.49;99283.59;10117257;29;20056;-77
2023/07/28 02:25:28;;;;;;;11.60;8.45;;;;;;;15.87;100.00;99281.53;10117579;29;20532;-76
2023/07/28 02:30:32;;;;;;;14.27;9.80;;;;;;;15.91;100.00;99292.84;10103895;29;20048;-77
2023/07/28 02:35:36;;;;;;;12.75;8.68;;;;;;;15.92;100.00;99289.09;10114075;29;20051;-77
2023/07/28 02:40:39;;;;;;;10.15;8.32;;;;;;;16.11;98.97;99299.38;10122729;29;20055;-77
2023/07/28 02:45:43;;;;;;;11.05;8.82;;;;;;;16.17;98.14;99295.09;10119067;29;20060;-77
2023/07/28 02:50:47;;;;;;;10.45;8.68;;;;;;;15.93;100.00;99296.19;10115551;29;20040;-76
2023/07/28 02:55:50;;;;;;;12.55;8.63;;;;;;;15.92;99.78;99302.66;10116955;29;20104;-77
2023/07/28 03:00:55;;;;;;;11.57;9.30;;;;;;;15.90;100.00;99305.53;10119840;29;20044;-77
2023/07/28 03:06:05;;;;;;;10.45;8.38;;;;;;;15.88;100.00;99317.59;10120921;29;20059;-77
2023/07/28 03:11:10;;;;;;;11.05;9.77;;;;;;;15.99;100.00;99309.00;10105832;29;20178;-77
2023/07/28 03:16:14;;;;;;;11.55;9.82;;;;;;;16.12;99.03;99313.75;10114369;29;20142;-76
2023/07/28 03:21:17;;;;;;;11.43;9.45;;;;;;;15.95;98.71;99315.81;10115567;29;20059;-76
2023/07/28 03:26:20;;;;;;;12.38;9.02;;;;;;;15.87;99.50;99319.44;10114220;29;20079;-77
2023/07/28 03:31:24;;;;;;;12.02;8.80;;;;;;;16.17;97.92;99321.34;10109714;29;20055;-77
2023/07/28 03:36:27;;;;;;;10.10;7.53;;;;;;;15.99;98.79;99318.97;10110945;29;20520;-76
2023/07/28 03:41:31;;;;;;;11.20;6.70;;;;;;;15.98;98.98;99320.03;10118071;29;20055;-77
2023/07/28 03:46:35;;;;;;;7.95;6.53;;;;;;;15.77;100.00;99328.84;10109591;29;20079;-76
2023/07/28 03:51:38;;;;;;;8.00;5.97;;;;;;;15.86;99.21;99331.31;10103753;29;20052;-77
2023/07/28 03:56:41;;;;;;;9.77;7.43;;;;;;;16.31;96.95;99315.09;10106016;29;20055;-77
2023/07/28 04:01:45;;;;;;;12.05;7.53;;;;;;;16.27;96.56;99328.19;10118679;29;20048;-77
2023/07/28 04:06:50;;;;;;;10.40;7.05;;;;;;;16.15;97.44;99327.81;10112543;29;20176;-77
2023/07/28 04:11:53;;;;;;;10.27;8.10;;;;;;;16.20;96.98;99332.63;10101678;29;20103;-77
2023/07/28 04:16:57;;;;;;;10.77;9.05;;;;;;;16.21;96.94;99336.19;10112311;29;20055;-77
2023/07/28 04:22:00;;;;;;;13.38;11.20;;;;;;;16.20;97.19;99329.94;10118789;29;20075;-76
2023/07/28 04:27:07;;;;;;;13.20;11.05;;;;;;;16.13;96.74;99331.72;10114728;29;20053;-77
2023/07/28 04:32:11;;;;;;;25.17;14.43;;;;;;;16.08;98.12;99336.84;10117943;29;20056;-78
2023/07/28 04:37:14;;;;;;;18.60;14.57;;;;;;;16.11;97.93;99344.59;10132252;29;20052;-77
2023/07/28 04:42:28;;;;;;;18.00;14.60;;;;;;;16.10;97.89;99346.47;10127305;29;20186;-77
2023/07/28 04:47:33;;;;;;;17.15;14.07;;;;;;;16.16;97.36;99350.31;10127657;29;20062;-78
2023/07/28 04:52:36;;;;;;;23.92;15.18;;;;;;;16.18;97.68;99353.69;10111992;29;20048;-76
2023/07/28 04:57:56;;;;;;;22.73;16.00;;;;;;;16.21;97.51;99347.88;10118817;29;20057;-76
2023/07/28 05:03:04;;;;;;;21.92;13.48;;;;;;;15.97;97.94;99359.81;10119810;29;20057;-77
2023/07/28 05:08:13;;;;;;;20.98;16.02;;;;;;;16.15;98.01;99357.59;10122535;29;20142;-76
2023/07/28 05:13:16;;;;;;;26.73;17.58;;;;;;;16.03;98.70;99355.53;10119420;29;20052;-77
2023/07/28 05:18:29;;;;;;;24.43;18.13;;;;;;;16.23;98.03;99350.38;10114056;29;20176;-77
2023/07/28 05:24:04;;;;;;;22.80;18.17;;;;;;;16.03;98.25;99367.19;10115716;29;20080;-77
2023/07/28 05:29:10;;;;;;;20.77;14.80;;;;;;;16.13;96.23;99369.63;10118495;29;20196;-77
2023/07/28 05:34:14;;;;;;;22.15;17.20;;;;;;;16.48;96.56;99367.25;10119645;29;20052;-76
2023/07/28 05:39:17;;;;;;;24.67;16.95;;;;;;;16.46;95.49;99374.75;10118393;29;21544;-77
2023/07/28 05:44:21;;;;;;;20.77;15.60;;;;;;;16.31;96.13;99378.25;10125177;29;20405;-77
2023/07/28 05:49:25;;;;;;;22.58;15.75;;;;;;;16.44;95.05;99395.75;10125897;29;20060;-77
2023/07/28 05:54:28;;;;;;;18.30;13.95;;;;;;;16.36;96.05;99402.94;10119097;29;20064;-76
2023/07/28 05:59:31;;;;;;;20.77;13.70;;;;;;;16.09;97.50;99404.38;10140758;29;20159;-77
2023/07/28 06:04:35;;;;;;;19.52;13.65;;;;;;;16.53;94.74;99406.31;10135767;29;20056;-78
2023/07/28 06:09:41;;;;;;;18.75;16.23;;;;;;;16.55;95.23;99403.41;10126778;29;20179;-77
2023/07/28 06:14:44;;;;;;;19.25;16.17;;;;;;;16.80;94.94;99407.50;10134345;29;20052;-76
2023/07/28 06:19:49;;;;;;;20.45;16.85;;;;;;;16.28;95.71;99410.31;10148319;29;20055;-76
2023/07/28 06:24:52;;;;;;;21.42;18.67;;;;;;;16.55;95.38;99416.97;10140625;29;20067;-77
2023/07/28 06:29:55;;;;;;;22.35;17.55;;;;;;;16.66;95.22;99418.38;10132345;29;20060;-79
2023/07/28 06:34:59;;;;;;;18.83;16.75;;;;;;;16.84;93.64;99424.28;10133684;29;20052;-76
2023/07/28 06:40:03;;;;;;;21.15;18.75;;;;;;;16.57;95.58;99439.31;10145292;29;20048;-77
2023/07/28 06:45:07;;;;;;;18.90;16.27;;;;;;;16.46;97.40;99439.78;10157105;29;21211;-77
2023/07/28 06:50:11;;;;;;;21.45;18.52;;;;;;;16.39;96.56;99441.53;10151761;29;20597;-77
2023/07/28 06:55:14;;;;;;;20.23;17.75;;;;;;;16.65;95.59;99450.09;10135317;29;20056;-76
2023/07/28 07:00:18;;;;;;;20.90;17.48;;;;;;;16.76;95.77;99457.75;10158317;29;20587;-77
2023/07/28 07:05:23;;;;;;;17.30;14.73;;;;;;;16.85;95.61;99463.06;10140558;29;20115;-77
2023/07/28 07:10:26;;;;;;;22.35;15.13;;;;;;;17.07;94.51;99472.97;10133685;29;20679;-77
2023/07/28 07:15:29;;;;;;;13.88;11.60;;;;;;;17.23;92.80;99471.97;10120343;29;20078;-77
2023/07/28 07:20:36;;;;;;;13.50;12.10;;;;;;;17.01;94.68;99484.56;10130223;29;20041;-78
2023/07/28 07:25:40;;;;;;;14.85;10.90;;;;;;;17.04;93.17;99486.91;10128962;29;20060;-77
2023/07/28 07:30:44;;;;;;;14.10;10.98;;;;;;;17.25;93.22;99483.44;10129710;29;20048;-78
2023/07/28 07:35:48;;;;;;;12.90;10.70;;;;;;;16.83;94.79;99484.94;10112803;29;21142;-78
2023/07/28 07:40:51;;;;;;;13.38;10.18;;;;;;;16.86;94.94;99494.56;10123104;29;20048;-78
2023/07/28 07:45:54;;;;;;;15.82;11.75;;;;;;;17.14;94.07;99500.22;10129359;29;20055;-76
2023/07/28 07:50:58;;;;;;;13.68;11.00;;;;;;;17.28;93.32;99498.50;10118943;29;20052;-76
2023/07/28 07:56:02;;;;;;;14.05;11.75;;;;;;;17.64;90.73;99512.13;10105074;29;20078;-76
2023/07/28 08:01:05;;;;;;;13.45;10.35;;;;;;;17.49;91.41;99498.56;10110283;29;20052;-76
2023/07/28 08:06:11;;;;;;;12.48;8.95;;;;;;;17.60;90.22;99511.63;10119406;29;20071;-76
2023/07/28 08:11:14;;;;;;;10.98;8.48;;;;;;;17.88;89.31;99500.03;10117195;29;20048;-76
2023/07/28 08:16:17;;;;;;;12.00;8.02;;;;;;;18.18;87.41;99514.34;10115766;29;20543;-76
2023/07/28 08:21:22;;;;;;;12.10;9.23;;;;;;;18.75;86.95;99509.78;10104038;29;20469;-76
2023/07/28 08:26:25;;;;;;;8.20;7.13;;;;;;;18.45;82.65;99511.88;10119498;29;20067;-77
2023/07/28 08:31:28;;;;;;;8.65;6.32;;;;;;;18.54;84.31;99508.81;10110689;29;20059;-77
2023/07/28 08:36:32;;;;;;;6.97;5.85;;;;;;;18.52;82.16;99527.22;10137930;29;20048;-76
2023/07/28 08:41:35;;;;;;;7.88;6.20;;;;;;;19.50;80.59;99510.88;10118041;29;20512;-76
2023/07/28 08:46:39;;;;;;;6.60;6.00;;;;;;;20.29;77.24;99518.38;10125196;29;21364;-76
2023/07/28 08:51:43;;;;;;;6.80;5.63;;;;;;;19.63;78.83;99532.72;10122415;29;20044;-75
2023/07/28 08:56:46;;;;;;;4.65;4.30;;;;;;;19.41;78.87;99540.13;10111268;29;20056;-76
2023/07/28 09:01:50;;;;;;;4.97;4.50;;;;;;;19.56;77.80;99545.47;10121617;29;20432;-78
2023/07/28 09:06:55;;;;;;;5.25;4.85;;;;;;;19.54;78.41;99547.53;10121412;29;20052;-75
2023/07/28 09:12:00;;;;;;;9.43;5.30;;;;;;;20.07;76.16;99544.97;10119217;29;20071;-75
2023/07/28 09:17:08;;;;;;;6.50;4.72;;;;;;;20.44;74.62;99553.69;10106100;29;20052;-75
2023/07/28 09:22:14;;;;;;;4.50;4.15;;;;;;;20.13;75.69;99559.69;10115657;29;20048;-75
2023/07/28 09:27:22;;;;;;;6.13;4.57;;;;;;;19.51;77.17;99567.00;10125157;29;20048;-75
2023/07/28 09:32:30;;;;;;;5.90;5.30;;;;;;;19.20;80.66;99564.75;10129950;29;20419;-77
2023/07/28 09:37:35;;;;;;;5.80;4.95;;;;;;;21.30;72.16;99569.13;10128943;29;20051;-75
2023/07/28 09:42:43;;;;;;;5.47;4.30;;;;;;;21.25;71.80;99563.47;10139222;29;20068;-75
2023/07/28 09:47:47;;;;;;;4.43;4.03;;;;;;;21.57;69.72;99561.69;10127881;29;20794;-76
2023/07/28 09:53:02;;;;;;;2.47;1.88;;;;;;;21.38;68.53;99563.44;10125458;29;20089;-76
2023/07/28 09:58:07;;;;;;;3.92;3.53;;;;;;;20.17;71.96;99579.19;10125132;29;20123;-76
2023/07/28 10:03:11;;;;;;;4.97;3.75;;;;;;;21.68;68.90;99571.94;10123682;29;20052;-75
2023/07/28 10:08:17;;;;;;;7.05;3.88;;;;;;;21.67;67.16;99573.00;10125545;29;20051;-76
2023/07/28 10:13:21;;;;;;;3.30;3.00;;;;;;;22.66;64.42;99570.78;10123493;29;20048;-75
2023/07/28 10:18:27;;;;;;;3.83;3.35;;;;;;;21.69;66.23;99583.72;10119370;29;20103;-76
2023/07/28 10:23:31;;;;;;;4.35;3.95;;;;;;;20.42;70.76;99585.78;10126246;29;20074;-75
2023/07/28 10:28:38;;;;;;;4.40;4.00;;;;;;;20.58;71.86;99594.59;10123567;29;21529;-74
2023/07/28 10:33:45;;;;;;;4.90;4.50;;;;;;;20.34;72.84;99594.97;10128793;29;20059;-75
2023/07/28 10:39:00;;;;;;;6.35;4.88;;;;;;;20.27;73.66;99613.22;10136919;29;20052;-75
2023/07/28 10:44:05;;;;;;;6.93;6.22;;;;;;;19.93;76.55;99600.50;10128794;29;20063;-76
2023/07/28 10:49:08;;;;;;;7.05;6.35;;;;;;;20.21;77.12;99613.16;10123604;29;20076;-76
2023/07/28 10:54:16;;;;;;;6.78;6.03;;;;;;;20.60;72.88;99607.00;10127365;29;20052;-75
2023/07/28 10:59:19;;;;;;;6.60;5.68;;;;;;;21.32;71.29;99602.53;10124793;29;20055;-73
2023/07/28 11:04:24;;;;;;;6.57;5.88;;;;;;;20.19;73.58;99631.66;10127776;29;20055;-76
2023/07/28 11:09:28;;;;;;;7.47;6.72;;;;;;;19.22;82.25;99625.25;10123554;29;21122;-74
2023/07/28 11:14:31;;;;;;;10.18;8.23;;;;;;;19.67;82.86;99620.34;10122858;29;20412;-75
2023/07/28 11:19:34;;;;;;;11.07;8.68;;;;;;;20.53;80.18;99619.78;10121230;29;20643;-76
2023/07/28 11:24:39;;;;;;;10.35;7.75;;;;;;;21.42;75.84;99608.41;10118694;29;20059;-76
2023/07/28 11:29:42;;;;;;;8.00;6.78;;;;;;;22.71;69.42;99601.03;10114060;29;20056;-75
2023/07/28 11:34:45;;;;;;;6.45;5.70;;;;;;;22.82;65.38;99606.84;10113964;29;20055;-76
2023/07/28 11:39:52;;;;;;;8.30;7.30;;;;;;;22.51;66.09;99605.81;10125254;29;20063;-73
2023/07/28 11:44:59;;;;;;;7.15;6.45;;;;;;;22.72;64.81;99604.63;10119724;29;20076;-75
2023/07/28 11:50:03;;;;;;;6.40;5.60;;;;;;;21.64;67.05;99619.91;10116899;29;20441;-75
2023/07/28 11:55:07;;;;;;;8.32;5.63;;;;;;;22.86;63.94;99602.59;10123418;29;20381;-76
2023/07/28 12:00:12;;;;;;;5.45;5.00;;;;;;;23.12;63.08;99612.50;10118214;29;20517;-77
2023/07/28 12:05:16;;;;;;;6.85;5.00;;;;;;;23.43;62.13;99609.66;10120675;29;20055;-76
2023/07/28 12:10:25;;;;;;;5.05;4.65;;;;;;;23.52;61.56;99618.41;10114937;29;20057;-74
2023/07/28 12:15:31;;;;;;;4.22;3.88;;;;;;;23.13;61.11;99622.41;10113398;29;20427;-77
2023/07/28 12:20:39;;;;;;;5.00;4.53;;;;;;;22.09;64.58;99622.66;10117870;29;20569;-76
2023/07/28 12:25:44;;;;;;;5.65;4.90;;;;;;;22.72;62.92;99624.63;10112220;29;20579;-75
2023/07/28 12:30:48;;;;;;;6.03;4.03;;;;;;;23.58;61.72;99619.38;10113660;29;20184;-76
2023/07/28 12:35:52;;;;;;;4.30;3.83;;;;;;;23.28;60.88;99633.00;10119829;29;20044;-74
2023/07/28 12:40:56;;;;;;;5.30;4.80;;;;;;;23.38;60.22;99612.22;10124438;29;20135;-76
2023/07/28 12:46:03;;;;;;;5.50;5.00;;;;;;;23.97;58.69;99615.38;10109873;29;20056;-74
2023/07/28 12:51:08;;;;;;;6.53;4.43;;;;;;;24.46;57.36;99609.84;10108840;29;20052;-75
2023/07/28 12:56:12;;;;;;;5.13;4.55;;;;;;;25.16;54.56;99614.63;10120532;29;21206;-74
2023/07/28 13:01:38;;;;;;;4.85;4.45;;;;;;;25.23;54.78;99622.75;10120855;29;20524;-75
2023/07/28 13:06:41;;;;;;;4.20;3.90;;;;;;;25.95;53.65;99614.19;10123702;29;20106;-74
2023/07/28 13:11:45;;;;;;;4.20;3.90;;;;;;;26.50;52.17;99624.63;10119522;29;20068;-75
2023/07/28 13:16:51;;;;;;;3.45;3.17;;;;;;;25.72;51.23;99626.06;10112286;29;20049;-74
2023/07/28 13:21:54;;;;;;;3.83;3.53;;;;;;;25.96;50.97;99607.59;10105645;29;21179;-74
2023/07/28 13:26:58;;;;;;;4.90;3.92;;;;;;;24.27;54.97;99620.00;10104760;29;20072;-75
2023/07/28 13:32:01;;;;;;;4.65;4.25;;;;;;;25.31;53.25;99612.22;10100604;29;20067;-73
2023/07/28 13:37:05;;;;;;;4.05;3.75;;;;;;;26.39;49.90;99607.06;10105642;29;20056;-74
2023/07/28 13:42:09;;;;;;;4.07;3.58;;;;;;;26.61;51.05;99593.41;10110147;29;20048;-74
2023/07/28 13:47:12;;;;;;;3.65;3.20;;;;;;;25.57;50.90;99599.06;10112046;29;20088;-75
2023/07/28 13:52:14;;;;;;;4.10;3.70;;;;;;;26.40;50.82;99592.22;10112724;29;20056;-74
2023/07/28 13:57:24;;;;;;;5.40;3.72;;;;;;;26.76;48.54;99586.47;10112997;29;20079;-75
2023/07/28 14:02:28;;;;;;;5.18;4.68;;;;;;;25.25;52.58;99595.88;10116484;29;20501;-75
2023/07/28 14:07:31;;;;;;;5.93;4.30;;;;;;;27.49;48.02;99582.66;10117568;29;20523;-76
2023/07/28 14:12:35;;;;;;;5.18;4.72;;;;;;;27.21;47.73;99580.88;10116597;29;20752;-75
2023/07/28 14:17:38;;;;;;;4.60;4.20;;;;;;;26.27;49.67;99587.00;10121722;29;20059;-71
2023/07/28 14:22:41;;;;;;;5.32;4.82;;;;;;;25.97;49.95;99581.75;10116470;29;20511;-74
2023/07/28 14:27:45;;;;;;;4.90;4.40;;;;;;;25.66;51.35;99583.03;10106975;29;21143;-77
2023/07/28 14:32:48;;;;;;;6.20;5.32;;;;;;;25.99;52.12;99583.16;10119180;29;20554;-76
2023/07/28 14:37:51;;;;;;;6.45;5.13;;;;;;;26.22;49.78;99582.25;10134993;29;20128;-75
2023/07/28 14:42:55;;;;;;;5.43;4.30;;;;;;;26.61;49.19;99570.56;10130327;29;20047;-75
2023/07/28 14:47:59;;;;;;;5.72;4.93;;;;;;;25.68;51.96;99583.66;10117819;29;20048;-76
2023/07/28 14:53:03;;;;;;;5.63;4.22;;;;;;;25.50;51.01;99570.84;10123781;29;20500;-76
2023/07/28 14:58:07;;;;;;;5.93;4.70;;;;;;;27.38;47.42;99554.09;10119009;29;20523;-76
2023/07/28 15:03:10;;;;;;;4.68;4.28;;;;;;;26.49;48.95;99560.47;10122829;29;20129;-76
2023/07/28 15:08:14;;;;;;;5.43;4.93;;;;;;;26.84;47.81;99564.06;10126146;29;21151;-75
2023/07/28 15:13:18;;;;;;;5.20;4.00;;;;;;;27.54;46.20;99566.19;10120184;29;20052;-75
2023/07/28 15:18:21;;;;;;;4.68;4.28;;;;;;;25.97;49.84;99565.22;10117898;29;20051;-76
2023/07/28 15:23:24;;;;;;;4.00;3.70;;;;;;;25.41;52.12;99556.66;10116943;29;20052;-76
2023/07/28 15:28:28;;;;;;;5.03;4.53;;;;;;;25.11;51.85;99543.91;10112062;29;20056;-76
2023/07/28 15:33:31;;;;;;;4.60;4.22;;;;;;;25.39;52.58;99556.88;10121949;29;20091;-76
2023/07/28 15:38:34;;;;;;;4.47;4.10;;;;;;;27.18;48.95;99556.59;10116221;29;20059;-76
2023/07/28 15:43:38;;;;;;;3.95;3.55;;;;;;;26.24;49.27;99566.31;10109775;29;20567;-76
2023/07/28 15:48:41;;;;;;;5.32;4.30;;;;;;;25.76;50.92;99559.34;10111513;29;20056;-76
2023/07/28 15:53:46;;;;;;;4.55;4.15;;;;;;;25.25;52.32;99554.66;10114287;29;21277;-76
2023/07/28 15:58:51;;;;;;;4.47;4.18;;;;;;;25.05;52.90;99555.88;10122188;29;20059;-76
2023/07/28 16:03:53;;;;;;;4.90;4.38;;;;;;;25.26;51.78;99550.81;10111626;29;20432;-76
2023/07/28 16:08:57;;;;;;;3.83;3.45;;;;;;;25.29;50.96;99553.94;10118179;29;20052;-75
2023/07/28 16:14:18;;;;;;;3.95;3.65;;;;;;;26.01;49.95;99555.41;10113618;29;20084;-75
2023/07/28 16:19:21;;;;;;;3.75;3.53;;;;;;;26.39;49.03;99564.94;10117658;29;20045;-75
2023/07/28 16:24:25;;;;;;;3.63;3.42;;;;;;;26.29;49.73;99551.81;10103883;29;20053;-76
2023/07/28 16:29:29;;;;;;;3.20;3.00;;;;;;;26.58;48.22;99551.78;10116130;29;20048;-76
2023/07/28 16:34:32;;;;;;;3.08;2.88;;;;;;;26.76;48.02;99537.72;10119268;29;20053;-75
2023/07/28 16:39:35;;;;;;;3.15;2.90;;;;;;;27.08;47.38;99543.47;10129665;29;20063;-75
2023/07/28 16:44:39;;;;;;;3.25;2.92;;;;;;;26.10;49.30;99551.19;10119638;29;20049;-76
2023/07/28 16:49:42;;;;;;;3.35;3.13;;;;;;;25.53;50.65;99548.38;10113985;29;20067;-76
2023/07/28 16:54:45;;;;;;;2.92;2.80;;;;;;;25.96;50.28;99552.56;10121827;29;21535;-76
2023/07/28 16:59:49;;;;;;;2.83;2.63;;;;;;;26.73;48.01;99539.06;10118962;29;20518;-76
2023/07/28 17:04:52;;;;;;;3.08;2.63;;;;;;;28.68;43.32;99546.97;10119132;29;20059;-75
2023/07/28 17:09:55;;;;;;;5.03;2.63;;;;;;;31.76;38.37;99540.88;10129343;29;20064;-76
2023/07/28 17:14:59;;;;;;;3.47;3.10;;;;;;;28.86;41.76;99540.22;10121445;29;20052;-75
2023/07/28 17:20:02;;;;;;;2.67;2.58;;;;;;;25.82;48.35;99554.78;10126701;29;20052;-76
2023/07/28 17:25:07;;;;;;;2.63;2.42;;;;;;;24.64;51.99;99551.28;10113472;29;20528;-77
2023/07/28 17:30:14;;;;;;;4.05;2.65;;;;;;;26.16;48.24;99539.16;10119569;29;20056;-76
2023/07/28 17:35:16;;;;;;;2.67;2.47;;;;;;;29.27;42.77;99533.03;10115716;29;20082;-76
2023/07/28 17:40:19;;;;;;;2.60;2.40;;;;;;;30.57;39.20;99525.63;10119268;29;20131;-76
2023/07/28 17:45:24;;;;;;;2.53;2.33;;;;;;;32.16;37.44;99531.50;10114366;29;20504;-76
2023/07/28 17:50:27;;;;;;;2.50;2.30;;;;;;;30.89;38.87;99532.81;10124619;29;20059;-76
2023/07/28 17:55:29;;;;;;;3.08;2.88;;;;;;;26.82;46.38;99544.16;10128319;29;20428;-76
2023/07/28 18:00:34;;;;;;;2.70;2.45;;;;;;;26.38;47.85;99555.00;10126932;29;20052;-76
2023/07/28 18:05:37;;;;;;;2.60;2.47;;;;;;;24.44;52.12;99555.19;10125259;29;20052;-76
2023/07/28 18:10:40;;;;;;;2.78;2.67;;;;;;;23.37;56.06;99555.75;10112941;29;20436;-76
2023/07/28 18:15:44;;;;;;;3.10;2.90;;;;;;;23.24;56.59;99546.88;10122492;29;20048;-76
2023/07/28 18:20:47;;;;;;;4.32;2.95;;;;;;;23.43;56.67;99559.50;10110210;29;20059;-76
2023/07/28 18:25:50;;;;;;;3.28;3.08;;;;;;;23.03;57.83;99559.06;10105956;29;20045;-76
2023/07/28 18:30:54;;;;;;;2.80;2.63;;;;;;;22.75;58.64;99555.72;10111137;29;20059;-75
2023/07/28 18:36:00;;;;;;;2.75;2.63;;;;;;;22.61;59.30;99558.81;10145893;29;20052;-74
2023/07/28 18:41:05;;;;;;;3.20;3.00;;;;;;;22.74;59.82;99558.72;10135567;29;20098;-77
2023/07/28 18:46:09;;;;;;;2.63;2.50;;;;;;;22.68;59.91;99574.13;10124355;29;20090;-77
2023/07/28 18:51:13;;;;;;;3.10;2.90;;;;;;;22.73;59.97;99574.25;10123825;29;20090;-76
2023/07/28 18:56:16;;;;;;;2.83;2.63;;;;;;;22.39;61.46;99583.78;10122195;29;20059;-76
2023/07/28 19:01:20;;;;;;;3.40;3.10;;;;;;;22.45;61.91;99593.03;10114191;29;20059;-76
2023/07/28 19:06:23;;;;;;;3.25;2.42;;;;;;;22.13;63.76;99612.13;10115096;29;20059;-76
2023/07/28 19:11:26;;;;;;;2.28;2.10;;;;;;;21.94;64.82;99619.41;10120718;29;20055;-75
2023/07/28 19:16:30;;;;;;;2.22;2.08;;;;;;;22.03;65.05;99617.25;10120482;29;21151;-77
2023/07/28 19:21:33;;;;;;;2.10;2.00;;;;;;;21.97;65.86;99629.03;10116861;29;20045;-76
2023/07/28 19:26:37;;;;;;;2.05;1.83;;;;;;;21.67;66.56;99624.09;10121367;29;20048;-76
2023/07/28 19:31:41;;;;;;;7.38;1.92;;;;;;;21.75;66.72;99632.09;10121129;29;20207;-75
2023/07/28 19:36:44;;;;;;;1.90;1.63;;;;;;;21.78;66.62;99626.19;10118301;29;20186;-76
2023/07/28 19:41:47;;;;;;;1.67;1.58;;;;;;;21.66;66.83;99636.06;10122127;29;20537;-75
2023/07/28 19:46:51;;;;;;;1.77;1.67;;;;;;;21.41;68.09;99630.47;10120765;29;20063;-76
2023/07/28 19:51:54;;;;;;;2.65;1.60;;;;;;;21.55;67.70;99631.28;10118251;29;20694;-75
2023/07/28 19:56:57;;;;;;;1.40;1.30;;;;;;;21.45;67.86;99642.66;10126038;29;20448;-77
2023/07/28 20:02:02;;;;;;;2.08;1.67;;;;;;;21.29;69.02;99646.66;10123970;29;20052;-74
2023/07/28 20:07:05;;;;;;;2.70;1.42;;;;;;;21.40;68.47;99651.47;10120148;29;20248;-76
2023/07/28 20:12:08;;;;;;;1.45;1.35;;;;;;;21.47;68.64;99646.00;10115183;29;20053;-77
2023/07/28 20:17:13;;;;;;;1.55;1.27;;;;;;;21.42;68.64;99641.19;10112809;29;21263;-75
2023/07/28 20:22:16;;;;;;;3.72;1.40;;;;;;;21.44;68.78;99646.41;10121263;29;20701;-76
2023/07/28 20:27:18;;;;;;;2.35;1.55;;;;;;;21.43;69.10;99642.03;10115597;29;20055;-75
2023/07/28 20:32:23;;;;;;;1.33;1.23;;;;;;;21.37;69.49;99641.00;10122970;29;20054;-76
2023/07/28 20:37:29;;;;;;;1.80;1.40;;;;;;;21.32;69.66;99651.72;10129877;29;20051;-75
2023/07/28 20:42:32;;;;;;;1.27;1.20;;;;;;;21.27;70.33;99647.94;10124850;29;20044;-76
2023/07/28 20:47:37;;;;;;;1.85;1.75;;;;;;;21.09;71.11;99646.69;10118974;29;20045;-75
2023/07/28 20:52:40;;;;;;;1.75;1.38;;;;;;;21.14;70.88;99652.34;10120705;29;20052;-76
2023/07/28 20:57:43;;;;;;;3.10;1.23;;;;;;;21.12;71.08;99664.56;10119622;29;20541;-74
2023/07/28 21:02:47;;;;;;;2.05;1.05;;;;;;;20.96;71.60;99663.88;10116572;29;20079;-74
2023/07/28 21:07:51;;;;;;;2.30;1.15;;;;;;;20.60;72.71;99663.41;10117487;29;20051;-75
2023/07/28 21:12:54;;;;;;;2.22;1.38;;;;;;;20.83;72.21;99674.78;10109257;29;20063;-77
2023/07/28 21:17:58;;;;;;;2.47;1.52;;;;;;;20.69;72.85;99673.09;10118749;29;20048;-75
2023/07/28 21:23:01;;;;;;;1.80;1.20;;;;;;;20.58;72.94;99668.25;10117141;29;20044;-75
2023/07/28 21:28:04;;;;;;;1.63;1.30;;;;;;;20.62;73.23;99669.50;10117756;29;21303;-74
2023/07/28 21:33:08;;;;;;;1.98;1.77;;;;;;;20.45;73.47;99669.91;10130548;29;20962;-74
2023/07/28 21:38:11;;;;;;;1.70;1.48;;;;;;;20.22;74.19;99670.25;10126355;29;20645;-75
2023/07/28 21:43:14;;;;;;;3.13;1.42;;;;;;;20.01;75.37;99667.63;10117050;29;20056;-75
2023/07/28 21:48:18;;;;;;;1.50;1.40;;;;;;;20.09;74.49;99654.66;10123773;29;20512;-74
2023/07/28 21:53:21;;;;;;;1.50;1.40;;;;;;;20.11;74.66;99649.03;10125772;29;20055;-75
2023/07/28 21:58:24;;;;;;;2.55;1.55;;;;;;;19.84;75.44;99654.34;10119073;29;20055;-75
2023/07/28 22:03:28;;;;;;;1.92;1.30;;;;;;;19.72;75.81;99658.72;10123317;29;20052;-75
2023/07/28 22:08:31;;;;;;;2.35;1.90;;;;;;;19.54;76.69;99659.19;10117077;29;20056;-74
2023/07/28 22:13:35;;;;;;;2.25;1.60;;;;;;;19.27;77.78;99670.97;10130179;29;20064;-76
2023/07/28 22:18:39;;;;;;;3.35;1.58;;;;;;;19.21;78.10;99668.00;10119308;29;20055;-76
2023/07/28 22:23:42;;;;;;;2.50;1.55;;;;;;;19.27;77.31;99676.41;10125534;29;20046;-74
2023/07/28 22:28:45;;;;;;;1.63;1.52;;;;;;;19.19;77.59;99666.50;10114680;29;20055;-75
2023/07/28 22:33:49;;;;;;;1.52;1.30;;;;;;;19.13;77.43;99668.13;10121255;29;20052;-77
2023/07/28 22:38:52;;;;;;;2.00;1.83;;;;;;;19.21;76.60;99654.38;10136995;29;20052;-75
2023/07/28 22:43:55;;;;;;;1.92;1.55;;;;;;;19.17;76.74;99663.13;10135081;29;20050;-77
2023/07/28 22:48:59;;;;;;;2.20;1.85;;;;;;;19.05;76.88;99651.94;10123428;29;20067;-75
2023/07/28 22:54:02;;;;;;;2.10;1.70;;;;;;;19.19;76.23;99648.28;10115529;29;20063;-76
2023/07/28 22:59:06;;;;;;;2.17;1.65;;;;;;;19.16;75.80;99645.13;10120334;29;20056;-75
2023/07/28 23:04:10;;;;;;;1.73;1.35;;;;;;;18.88;76.88;99656.00;10125887;29;20055;-76
2023/07/28 23:09:14;;;;;;;2.03;1.80;;;;;;;18.84;77.22;99649.25;10115292;29;20051;-75
2023/07/28 23:14:17;;;;;;;2.92;1.70;;;;;;;18.99;76.59;99641.88;10122583;29;20500;-75
2023/07/28 23:19:21;;;;;;;2.42;1.85;;;;;;;19.00;76.43;99641.66;10118110;29;20056;-75
2023/07/28 23:24:24;;;;;;;1.98;1.40;;;;;;;18.98;76.12;99642.91;10127627;29;20060;-75
2023/07/28 23:29:27;;;;;;;1.95;1.70;;;;;;;19.01;76.17;99631.63;10116416;29;20476;-75